KDRI/DRI METAR and TAF weather

Enter ICAO airport designator
Station Type Date Time Source
KDRI METAR 2018/12/13 16:35 UTC NOAA

KDRI 131635Z AUTO 14006KT 10SM -DZ OVC006 16/16 A2983 RMK AO2 T01620155


Station Type Date Time Source
KDRI Decoded METAR 2018/12/13 16:35 UTC NOAA

De Ridder, Beauregard Parish Airport, LA, United States (KDRI) 30-49-54N 093-20-23W
Dec 13, 2018 - 11:35 AM EST / 2018.12.13 1635 UTC
Wind: from the SE (140 degrees) at 7 MPH (6 KT):0
Visibility: 10 mile(s):0
Sky conditions: overcast
Weather: light drizzle
Temperature: 61.2 F (16.2 C)
Dew Point: 59.9 F (15.5 C)
Relative Humidity: 95%
Pressure (altimeter): 29.83 in. Hg (1010 hPa)
ob: KDRI 131635Z AUTO 14006KT 10SM -DZ OVC006 16/16 A2983 RMK AO2 T01620155
cycle: 16

Station Type Date Time Source
KDRI TAF UTC NOAA

Error!


Example: see airport list